Honey Island, Texas
Current Conditions -  °F | °C
As of 1:15 AM on Friday 19 Dec 2014 (Local Time) from KBMT Reporting Station
Thunderstorm Thunderstorm  
Wind Chill: 56°   Ceiling: 300
Heat Index: 56°   Visibility: 2mi
Dew Point: 56°   Wind: 9mph
Humidity: 99%   Direction: 10°N
Pressure: 30.06"   Gusts: NA
Location:  30.3781°N, 94.3538°W
Report Text: KBMT 190715Z AUTO 01008KT 2SM +TSRA OVC003 13/13 A3006 RMK AO2 LTG DSNT W THRU NE T01320131
Loading
Personal Weather Stations






























Interactive Weather Map New forecast layout! Learn more

10-Day Weather Forecast

Advertisements
Track Severe Weather on mobile